sensor_id;sensor_type;location;lat;lon;timestamp;P1;durP1;ratioP1;P2;durP2;ratioP2
47796;SDS011;33558;50.922;14.068;2023-03-02T00:01:33;26.57;;;13.60;;
47796;SDS011;33558;50.922;14.068;2023-03-02T00:04:03;32.57;;;16.73;;
47796;SDS011;33558;50.922;14.068;2023-03-02T00:06:30;25.17;;;13.43;;
47796;SDS011;33558;50.922;14.068;2023-03-02T00:08:57;28.87;;;14.30;;
47796;SDS011;33558;50.922;14.068;2023-03-02T00:11:25;26.70;;;13.30;;
47796;SDS011;33558;50.922;14.068;2023-03-02T00:13:54;30.10;;;15.67;;
47796;SDS011;33558;50.922;14.068;2023-03-02T00:16:21;25.87;;;12.73;;
47796;SDS011;33558;50.922;14.068;2023-03-02T00:18:47;25.60;;;13.67;;
47796;SDS011;33558;50.922;14.068;2023-03-02T00:21:14;31.73;;;14.47;;
47796;SDS011;33558;50.922;14.068;2023-03-02T00:23:41;24.40;;;13.83;;
47796;SDS011;33558;50.922;14.068;2023-03-02T00:26:09;23.87;;;12.60;;
47796;SDS011;33558;50.922;14.068;2023-03-02T00:28:35;25.77;;;12.83;;
47796;SDS011;33558;50.922;14.068;2023-03-02T00:31:04;25.30;;;12.40;;
47796;SDS011;33558;50.922;14.068;2023-03-02T00:33:31;27.13;;;13.33;;
47796;SDS011;33558;50.922;14.068;2023-03-02T00:35:58;27.23;;;12.33;;
47796;SDS011;33558;50.922;14.068;2023-03-02T00:38:25;26.20;;;13.27;;
47796;SDS011;33558;50.922;14.068;2023-03-02T00:40:53;25.93;;;12.77;;
47796;SDS011;33558;50.922;14.068;2023-03-02T00:43:20;26.70;;;13.60;;
47796;SDS011;33558;50.922;14.068;2023-03-02T00:45:51;30.27;;;13.77;;
47796;SDS011;33558;50.922;14.068;2023-03-02T00:48:19;29.90;;;13.83;;
47796;SDS011;33558;50.922;14.068;2023-03-02T00:50:46;26.57;;;13.60;;
47796;SDS011;33558;50.922;14.068;2023-03-02T00:53:12;26.57;;;14.10;;
47796;SDS011;33558;50.922;14.068;2023-03-02T00:55:39;29.33;;;14.37;;
47796;SDS011;33558;50.922;14.068;2023-03-02T00:58:05;27.07;;;13.17;;
47796;SDS011;33558;50.922;14.068;2023-03-02T01:00:32;29.83;;;14.07;;
47796;SDS011;33558;50.922;14.068;2023-03-02T01:03:03;30.50;;;13.93;;
47796;SDS011;33558;50.922;14.068;2023-03-02T01:05:34;25.27;;;14.10;;
47796;SDS011;33558;50.922;14.068;2023-03-02T01:08:02;29.73;;;15.07;;
47796;SDS011;33558;50.922;14.068;2023-03-02T01:10:29;30.73;;;15.20;;
47796;SDS011;33558;50.922;14.068;2023-03-02T01:12:56;30.20;;;14.07;;
47796;SDS011;33558;50.922;14.068;2023-03-02T01:15:23;31.77;;;15.50;;
47796;SDS011;33558;50.922;14.068;2023-03-02T01:17:50;31.87;;;15.43;;
47796;SDS011;33558;50.922;14.068;2023-03-02T01:20:16;30.83;;;14.97;;
47796;SDS011;33558;50.922;14.068;2023-03-02T01:22:44;27.73;;;14.23;;
47796;SDS011;33558;50.922;14.068;2023-03-02T01:25:11;32.27;;;14.50;;
47796;SDS011;33558;50.922;14.068;2023-03-02T01:27:38;29.80;;;15.17;;
47796;SDS011;33558;50.922;14.068;2023-03-02T01:30:05;37.00;;;16.20;;
47796;SDS011;33558;50.922;14.068;2023-03-02T01:32:32;28.03;;;14.30;;
47796;SDS011;33558;50.922;14.068;2023-03-02T01:34:59;37.40;;;16.13;;
47796;SDS011;33558;50.922;14.068;2023-03-02T01:37:26;29.17;;;15.43;;
47796;SDS011;33558;50.922;14.068;2023-03-02T01:39:54;28.87;;;14.97;;
47796;SDS011;33558;50.922;14.068;2023-03-02T01:42:21;31.83;;;15.17;;
47796;SDS011;33558;50.922;14.068;2023-03-02T01:44:48;33.63;;;16.33;;
47796;SDS011;33558;50.922;14.068;2023-03-02T01:47:16;32.30;;;15.37;;
47796;SDS011;33558;50.922;14.068;2023-03-02T01:49:53;32.00;;;14.97;;
47796;SDS011;33558;50.922;14.068;2023-03-02T01:52:23;31.17;;;15.70;;
47796;SDS011;33558;50.922;14.068;2023-03-02T01:54:51;30.57;;;15.27;;
47796;SDS011;33558;50.922;14.068;2023-03-02T01:57:21;31.43;;;14.97;;
47796;SDS011;33558;50.922;14.068;2023-03-02T01:59:51;29.40;;;15.17;;
47796;SDS011;33558;50.922;14.068;2023-03-02T02:02:19;34.33;;;15.63;;
47796;SDS011;33558;50.922;14.068;2023-03-02T02:04:47;32.77;;;16.03;;
47796;SDS011;33558;50.922;14.068;2023-03-02T02:07:14;34.30;;;16.23;;
47796;SDS011;33558;50.922;14.068;2023-03-02T02:09:42;32.23;;;14.90;;
47796;SDS011;33558;50.922;14.068;2023-03-02T02:12:12;31.73;;;15.67;;
47796;SDS011;33558;50.922;14.068;2023-03-02T02:14:39;31.30;;;16.07;;
47796;SDS011;33558;50.922;14.068;2023-03-02T02:17:06;34.17;;;16.00;;
47796;SDS011;33558;50.922;14.068;2023-03-02T02:19:38;32.37;;;15.40;;
47796;SDS011;33558;50.922;14.068;2023-03-02T02:22:12;34.60;;;16.60;;
47796;SDS011;33558;50.922;14.068;2023-03-02T02:24:41;31.77;;;15.70;;
47796;SDS011;33558;50.922;14.068;2023-03-02T02:27:12;33.73;;;15.33;;
47796;SDS011;33558;50.922;14.068;2023-03-02T02:29:41;31.37;;;15.13;;
47796;SDS011;33558;50.922;14.068;2023-03-02T02:32:12;31.97;;;16.10;;
47796;SDS011;33558;50.922;14.068;2023-03-02T02:34:43;34.87;;;14.83;;
47796;SDS011;33558;50.922;14.068;2023-03-02T02:37:12;35.37;;;15.87;;
47796;SDS011;33558;50.922;14.068;2023-03-02T02:39:42;32.93;;;15.97;;
47796;SDS011;33558;50.922;14.068;2023-03-02T02:42:13;30.47;;;14.37;;
47796;SDS011;33558;50.922;14.068;2023-03-02T02:44:41;31.67;;;16.27;;
47796;SDS011;33558;50.922;14.068;2023-03-02T02:47:12;35.10;;;16.37;;
47796;SDS011;33558;50.922;14.068;2023-03-02T02:49:41;32.77;;;15.73;;
47796;SDS011;33558;50.922;14.068;2023-03-02T02:52:09;34.10;;;15.77;;
47796;SDS011;33558;50.922;14.068;2023-03-02T02:54:38;33.77;;;16.13;;
47796;SDS011;33558;50.922;14.068;2023-03-02T02:57:05;32.90;;;15.30;;
47796;SDS011;33558;50.922;14.068;2023-03-02T02:59:34;32.27;;;15.80;;
47796;SDS011;33558;50.922;14.068;2023-03-02T03:02:04;34.77;;;16.43;;
47796;SDS011;33558;50.922;14.068;2023-03-02T03:04:31;34.60;;;16.50;;
47796;SDS011;33558;50.922;14.068;2023-03-02T03:06:59;31.70;;;15.43;;
47796;SDS011;33558;50.922;14.068;2023-03-02T03:09:27;33.13;;;15.17;;
47796;SDS011;33558;50.922;14.068;2023-03-02T03:11:54;36.30;;;15.70;;
47796;SDS011;33558;50.922;14.068;2023-03-02T03:14:24;31.97;;;16.73;;
47796;SDS011;33558;50.922;14.068;2023-03-02T03:16:54;33.40;;;16.43;;
47796;SDS011;33558;50.922;14.068;2023-03-02T03:19:22;36.43;;;16.50;;
47796;SDS011;33558;50.922;14.068;2023-03-02T03:21:51;34.03;;;15.10;;
47796;SDS011;33558;50.922;14.068;2023-03-02T03:24:20;34.80;;;16.03;;
47796;SDS011;33558;50.922;14.068;2023-03-02T03:26:48;31.20;;;15.67;;
47796;SDS011;33558;50.922;14.068;2023-03-02T03:29:16;30.23;;;15.53;;
47796;SDS011;33558;50.922;14.068;2023-03-02T03:31:45;31.27;;;14.93;;
47796;SDS011;33558;50.922;14.068;2023-03-02T03:34:13;35.87;;;16.20;;
47796;SDS011;33558;50.922;14.068;2023-03-02T03:36:41;28.70;;;15.10;;
47796;SDS011;33558;50.922;14.068;2023-03-02T03:39:09;32.90;;;15.93;;
47796;SDS011;33558;50.922;14.068;2023-03-02T03:41:36;32.77;;;15.57;;
47796;SDS011;33558;50.922;14.068;2023-03-02T03:44:03;29.97;;;14.60;;
47796;SDS011;33558;50.922;14.068;2023-03-02T03:46:32;32.77;;;15.57;;
47796;SDS011;33558;50.922;14.068;2023-03-02T03:49:00;33.17;;;15.47;;
47796;SDS011;33558;50.922;14.068;2023-03-02T03:51:28;34.27;;;15.90;;
47796;SDS011;33558;50.922;14.068;2023-03-02T03:53:59;33.77;;;15.13;;
47796;SDS011;33558;50.922;14.068;2023-03-02T03:56:32;35.97;;;14.87;;
47796;SDS011;33558;50.922;14.068;2023-03-02T03:58:59;29.67;;;14.60;;
47796;SDS011;33558;50.922;14.068;2023-03-02T04:01:35;31.23;;;14.70;;
47796;SDS011;33558;50.922;14.068;2023-03-02T04:04:04;30.80;;;13.83;;
47796;SDS011;33558;50.922;14.068;2023-03-02T04:06:33;32.30;;;14.37;;
47796;SDS011;33558;50.922;14.068;2023-03-02T04:09:00;28.90;;;13.80;;
47796;SDS011;33558;50.922;14.068;2023-03-02T04:11:31;32.43;;;15.57;;
47796;SDS011;33558;50.922;14.068;2023-03-02T04:13:58;31.43;;;14.73;;
47796;SDS011;33558;50.922;14.068;2023-03-02T04:16:25;31.47;;;15.43;;
47796;SDS011;33558;50.922;14.068;2023-03-02T04:18:52;32.37;;;15.37;;
47796;SDS011;33558;50.922;14.068;2023-03-02T04:21:19;36.83;;;17.57;;
47796;SDS011;33558;50.922;14.068;2023-03-02T04:23:47;32.80;;;15.43;;
47796;SDS011;33558;50.922;14.068;2023-03-02T04:26:14;28.70;;;16.50;;
47796;SDS011;33558;50.922;14.068;2023-03-02T04:28:41;32.67;;;16.20;;
47796;SDS011;33558;50.922;14.068;2023-03-02T04:31:10;34.23;;;15.17;;
47796;SDS011;33558;50.922;14.068;2023-03-02T04:33:36;31.60;;;15.77;;
47796;SDS011;33558;50.922;14.068;2023-03-02T04:36:04;34.73;;;16.27;;
47796;SDS011;33558;50.922;14.068;2023-03-02T04:38:32;34.87;;;17.07;;
47796;SDS011;33558;50.922;14.068;2023-03-02T04:41:01;32.67;;;15.10;;
47796;SDS011;33558;50.922;14.068;2023-03-02T04:43:28;33.63;;;14.60;;
47796;SDS011;33558;50.922;14.068;2023-03-02T04:45:56;34.80;;;15.90;;
47796;SDS011;33558;50.922;14.068;2023-03-02T04:48:23;37.57;;;17.00;;
47796;SDS011;33558;50.922;14.068;2023-03-02T04:50:50;31.03;;;15.80;;
47796;SDS011;33558;50.922;14.068;2023-03-02T04:53:17;29.90;;;15.10;;
47796;SDS011;33558;50.922;14.068;2023-03-02T04:55:44;31.53;;;15.73;;
47796;SDS011;33558;50.922;14.068;2023-03-02T04:58:12;32.07;;;15.60;;
47796;SDS011;33558;50.922;14.068;2023-03-02T05:00:39;33.37;;;14.57;;
47796;SDS011;33558;50.922;14.068;2023-03-02T05:03:06;38.30;;;15.80;;
47796;SDS011;33558;50.922;14.068;2023-03-02T05:05:32;32.30;;;16.37;;
47796;SDS011;33558;50.922;14.068;2023-03-02T05:07:59;33.27;;;16.83;;
47796;SDS011;33558;50.922;14.068;2023-03-02T05:10:26;31.90;;;14.60;;
47796;SDS011;33558;50.922;14.068;2023-03-02T05:12:53;32.97;;;16.07;;
47796;SDS011;33558;50.922;14.068;2023-03-02T05:15:24;38.73;;;16.43;;
47796;SDS011;33558;50.922;14.068;2023-03-02T05:17:52;40.60;;;17.87;;
47796;SDS011;33558;50.922;14.068;2023-03-02T05:20:18;34.50;;;17.73;;
47796;SDS011;33558;50.922;14.068;2023-03-02T05:22:45;36.13;;;16.77;;
47796;SDS011;33558;50.922;14.068;2023-03-02T05:25:12;32.27;;;15.40;;
47796;SDS011;33558;50.922;14.068;2023-03-02T05:27:39;39.00;;;17.27;;
47796;SDS011;33558;50.922;14.068;2023-03-02T05:30:06;34.83;;;15.73;;
47796;SDS011;33558;50.922;14.068;2023-03-02T05:32:35;36.83;;;16.27;;
47796;SDS011;33558;50.922;14.068;2023-03-02T05:35:02;34.97;;;18.00;;
47796;SDS011;33558;50.922;14.068;2023-03-02T05:37:29;30.63;;;15.00;;
47796;SDS011;33558;50.922;14.068;2023-03-02T05:39:56;33.67;;;17.20;;
47796;SDS011;33558;50.922;14.068;2023-03-02T05:42:22;33.93;;;16.73;;
47796;SDS011;33558;50.922;14.068;2023-03-02T05:44:49;32.40;;;15.90;;
47796;SDS011;33558;50.922;14.068;2023-03-02T05:47:16;31.83;;;15.37;;
47796;SDS011;33558;50.922;14.068;2023-03-02T05:49:44;37.63;;;16.43;;
47796;SDS011;33558;50.922;14.068;2023-03-02T05:52:10;35.57;;;18.23;;
47796;SDS011;33558;50.922;14.068;2023-03-02T05:54:37;32.17;;;15.53;;
47796;SDS011;33558;50.922;14.068;2023-03-02T05:57:04;34.97;;;16.53;;
47796;SDS011;33558;50.922;14.068;2023-03-02T05:59:31;35.10;;;16.03;;
47796;SDS011;33558;50.922;14.068;2023-03-02T06:01:58;39.23;;;17.23;;
47796;SDS011;33558;50.922;14.068;2023-03-02T06:04:25;37.40;;;15.93;;
47796;SDS011;33558;50.922;14.068;2023-03-02T06:06:53;32.63;;;16.77;;
47796;SDS011;33558;50.922;14.068;2023-03-02T06:09:19;35.27;;;15.70;;
47796;SDS011;33558;50.922;14.068;2023-03-02T06:11:46;32.20;;;15.47;;
47796;SDS011;33558;50.922;14.068;2023-03-02T06:14:13;35.67;;;16.33;;
47796;SDS011;33558;50.922;14.068;2023-03-02T06:16:39;33.73;;;15.53;;
47796;SDS011;33558;50.922;14.068;2023-03-02T06:19:06;35.90;;;17.03;;
47796;SDS011;33558;50.922;14.068;2023-03-02T06:21:32;43.43;;;17.20;;
47796;SDS011;33558;50.922;14.068;2023-03-02T06:24:00;36.33;;;16.63;;
47796;SDS011;33558;50.922;14.068;2023-03-02T06:26:27;30.60;;;16.37;;
47796;SDS011;33558;50.922;14.068;2023-03-02T06:28:54;32.00;;;16.03;;
47796;SDS011;33558;50.922;14.068;2023-03-02T06:31:20;38.37;;;17.23;;
47796;SDS011;33558;50.922;14.068;2023-03-02T06:33:47;33.03;;;16.20;;
47796;SDS011;33558;50.922;14.068;2023-03-02T06:36:14;30.33;;;16.07;;
47796;SDS011;33558;50.922;14.068;2023-03-02T06:38:41;32.57;;;16.80;;
47796;SDS011;33558;50.922;14.068;2023-03-02T06:41:09;38.10;;;17.23;;
47796;SDS011;33558;50.922;14.068;2023-03-02T06:43:35;35.07;;;16.10;;
47796;SDS011;33558;50.922;14.068;2023-03-02T06:46:02;39.10;;;17.40;;
47796;SDS011;33558;50.922;14.068;2023-03-02T06:48:28;34.57;;;15.77;;
47796;SDS011;33558;50.922;14.068;2023-03-02T06:50:55;28.83;;;15.47;;
47796;SDS011;33558;50.922;14.068;2023-03-02T06:53:22;34.27;;;16.73;;
47796;SDS011;33558;50.922;14.068;2023-03-02T06:55:48;38.43;;;17.97;;
47796;SDS011;33558;50.922;14.068;2023-03-02T06:58:16;38.83;;;18.03;;
47796;SDS011;33558;50.922;14.068;2023-03-02T07:00:43;41.60;;;18.80;;
47796;SDS011;33558;50.922;14.068;2023-03-02T07:03:10;31.10;;;16.33;;
47796;SDS011;33558;50.922;14.068;2023-03-02T07:05:37;37.43;;;17.90;;
47796;SDS011;33558;50.922;14.068;2023-03-02T07:08:03;38.03;;;19.53;;
47796;SDS011;33558;50.922;14.068;2023-03-02T07:10:30;34.37;;;17.27;;
47796;SDS011;33558;50.922;14.068;2023-03-02T07:12:57;39.60;;;18.27;;
47796;SDS011;33558;50.922;14.068;2023-03-02T07:15:25;35.80;;;17.00;;
47796;SDS011;33558;50.922;14.068;2023-03-02T07:17:51;33.23;;;16.07;;
47796;SDS011;33558;50.922;14.068;2023-03-02T07:20:18;38.60;;;17.57;;
47796;SDS011;33558;50.922;14.068;2023-03-02T07:22:45;36.60;;;18.77;;
47796;SDS011;33558;50.922;14.068;2023-03-02T07:25:12;32.23;;;16.67;;
47796;SDS011;33558;50.922;14.068;2023-03-02T07:27:39;35.43;;;18.27;;
47796;SDS011;33558;50.922;14.068;2023-03-02T07:30:06;41.67;;;18.53;;
47796;SDS011;33558;50.922;14.068;2023-03-02T07:32:35;32.37;;;17.30;;
47796;SDS011;33558;50.922;14.068;2023-03-02T07:35:02;41.53;;;19.60;;
47796;SDS011;33558;50.922;14.068;2023-03-02T07:37:29;36.70;;;19.53;;
47796;SDS011;33558;50.922;14.068;2023-03-02T07:39:55;40.77;;;19.23;;
47796;SDS011;33558;50.922;14.068;2023-03-02T07:42:22;37.70;;;18.67;;
47796;SDS011;33558;50.922;14.068;2023-03-02T07:44:53;39.83;;;19.10;;
47796;SDS011;33558;50.922;14.068;2023-03-02T07:47:20;43.23;;;20.57;;
47796;SDS011;33558;50.922;14.068;2023-03-02T07:49:49;39.87;;;19.50;;
47796;SDS011;33558;50.922;14.068;2023-03-02T07:52:15;43.90;;;21.83;;
47796;SDS011;33558;50.922;14.068;2023-03-02T07:54:42;45.00;;;20.87;;
47796;SDS011;33558;50.922;14.068;2023-03-02T07:57:09;43.37;;;21.10;;
47796;SDS011;33558;50.922;14.068;2023-03-02T07:59:37;41.00;;;20.93;;
47796;SDS011;33558;50.922;14.068;2023-03-02T08:02:04;41.90;;;20.83;;
47796;SDS011;33558;50.922;14.068;2023-03-02T08:04:31;48.97;;;23.87;;
47796;SDS011;33558;50.922;14.068;2023-03-02T08:07:01;43.50;;;23.33;;
47796;SDS011;33558;50.922;14.068;2023-03-02T08:09:27;52.27;;;27.53;;
47796;SDS011;33558;50.922;14.068;2023-03-02T08:11:54;60.23;;;37.67;;
47796;SDS011;33558;50.922;14.068;2023-03-02T08:14:21;44.53;;;19.97;;
47796;SDS011;33558;50.922;14.068;2023-03-02T08:16:47;38.67;;;19.67;;
47796;SDS011;33558;50.922;14.068;2023-03-02T08:19:16;36.87;;;18.00;;
47796;SDS011;33558;50.922;14.068;2023-03-02T08:21:43;36.60;;;19.03;;
47796;SDS011;33558;50.922;14.068;2023-03-02T08:24:11;34.83;;;18.43;;
47796;SDS011;33558;50.922;14.068;2023-03-02T08:26:38;39.13;;;19.70;;
47796;SDS011;33558;50.922;14.068;2023-03-02T08:29:05;39.97;;;20.30;;
47796;SDS011;33558;50.922;14.068;2023-03-02T08:31:31;40.53;;;19.90;;
47796;SDS011;33558;50.922;14.068;2023-03-02T08:33:58;42.80;;;22.37;;
47796;SDS011;33558;50.922;14.068;2023-03-02T08:36:25;43.77;;;21.93;;
47796;SDS011;33558;50.922;14.068;2023-03-02T08:38:52;42.97;;;21.17;;
47796;SDS011;33558;50.922;14.068;2023-03-02T08:41:21;42.83;;;22.37;;
47796;SDS011;33558;50.922;14.068;2023-03-02T08:43:48;37.83;;;20.90;;
47796;SDS011;33558;50.922;14.068;2023-03-02T08:46:18;44.27;;;22.40;;
47796;SDS011;33558;50.922;14.068;2023-03-02T08:48:45;41.97;;;22.80;;
47796;SDS011;33558;50.922;14.068;2023-03-02T08:51:13;40.30;;;22.03;;
47796;SDS011;33558;50.922;14.068;2023-03-02T08:53:41;42.10;;;21.33;;
47796;SDS011;33558;50.922;14.068;2023-03-02T08:56:14;42.17;;;22.70;;
47796;SDS011;33558;50.922;14.068;2023-03-02T08:58:43;46.13;;;22.37;;
47796;SDS011;33558;50.922;14.068;2023-03-02T09:01:13;43.30;;;21.73;;
47796;SDS011;33558;50.922;14.068;2023-03-02T09:03:41;46.93;;;21.97;;
47796;SDS011;33558;50.922;14.068;2023-03-02T09:06:07;37.60;;;20.23;;
47796;SDS011;33558;50.922;14.068;2023-03-02T09:08:34;44.90;;;23.03;;
47796;SDS011;33558;50.922;14.068;2023-03-02T09:11:01;39.97;;;21.97;;
47796;SDS011;33558;50.922;14.068;2023-03-02T09:13:28;40.17;;;21.30;;
47796;SDS011;33558;50.922;14.068;2023-03-02T09:15:56;41.00;;;21.67;;
47796;SDS011;33558;50.922;14.068;2023-03-02T09:18:22;41.10;;;20.67;;
47796;SDS011;33558;50.922;14.068;2023-03-02T09:20:49;38.53;;;19.97;;
47796;SDS011;33558;50.922;14.068;2023-03-02T09:23:17;41.20;;;21.27;;
47796;SDS011;33558;50.922;14.068;2023-03-02T09:25:43;39.20;;;20.73;;
47796;SDS011;33558;50.922;14.068;2023-03-02T09:28:11;39.97;;;21.03;;
47796;SDS011;33558;50.922;14.068;2023-03-02T09:30:38;38.70;;;20.37;;
47796;SDS011;33558;50.922;14.068;2023-03-02T09:33:06;38.90;;;21.00;;
47796;SDS011;33558;50.922;14.068;2023-03-02T09:35:33;37.33;;;20.10;;
47796;SDS011;33558;50.922;14.068;2023-03-02T09:38:00;40.17;;;20.43;;
47796;SDS011;33558;50.922;14.068;2023-03-02T09:40:26;39.83;;;20.47;;
47796;SDS011;33558;50.922;14.068;2023-03-02T09:42:56;43.37;;;20.93;;
47796;SDS011;33558;50.922;14.068;2023-03-02T09:45:30;36.27;;;19.77;;
47796;SDS011;33558;50.922;14.068;2023-03-02T09:48:13;36.30;;;20.00;;
47796;SDS011;33558;50.922;14.068;2023-03-02T09:50:45;39.27;;;20.13;;
47796;SDS011;33558;50.922;14.068;2023-03-02T09:53:21;38.87;;;19.20;;
47796;SDS011;33558;50.922;14.068;2023-03-02T09:55:53;34.38;;;19.42;;
47796;SDS011;33558;50.922;14.068;2023-03-02T09:58:23;32.70;;;19.13;;
47796;SDS011;33558;50.922;14.068;2023-03-02T10:00:51;32.83;;;18.03;;
47796;SDS011;33558;50.922;14.068;2023-03-02T10:03:20;35.00;;;18.37;;
47796;SDS011;33558;50.922;14.068;2023-03-02T10:05:48;38.37;;;19.17;;
47796;SDS011;33558;50.922;14.068;2023-03-02T10:08:16;35.33;;;18.10;;
47796;SDS011;33558;50.922;14.068;2023-03-02T10:10:45;33.90;;;17.43;;
47796;SDS011;33558;50.922;14.068;2023-03-02T10:13:19;30.00;;;16.80;;
47796;SDS011;33558;50.922;14.068;2023-03-02T10:15:52;32.17;;;16.50;;
47796;SDS011;33558;50.922;14.068;2023-03-02T10:18:27;29.57;;;15.83;;
47796;SDS011;33558;50.922;14.068;2023-03-02T10:20:58;34.07;;;15.70;;
47796;SDS011;33558;50.922;14.068;2023-03-02T10:23:30;31.97;;;16.60;;
47796;SDS011;33558;50.922;14.068;2023-03-02T10:26:04;29.60;;;16.73;;
47796;SDS011;33558;50.922;14.068;2023-03-02T10:28:43;30.70;;;17.10;;
47796;SDS011;33558;50.922;14.068;2023-03-02T10:31:15;31.17;;;16.93;;
47796;SDS011;33558;50.922;14.068;2023-03-02T10:33:45;28.30;;;17.37;;
47796;SDS011;33558;50.922;14.068;2023-03-02T10:36:17;33.07;;;18.03;;
47796;SDS011;33558;50.922;14.068;2023-03-02T10:38:47;29.33;;;16.20;;
47796;SDS011;33558;50.922;14.068;2023-03-02T10:41:14;27.13;;;14.87;;
47796;SDS011;33558;50.922;14.068;2023-03-02T10:43:43;28.07;;;14.90;;
47796;SDS011;33558;50.922;14.068;2023-03-02T10:46:11;26.07;;;14.53;;
47796;SDS011;33558;50.922;14.068;2023-03-02T10:48:46;26.60;;;15.50;;
47796;SDS011;33558;50.922;14.068;2023-03-02T10:51:19;26.63;;;14.90;;
47796;SDS011;33558;50.922;14.068;2023-03-02T10:53:47;24.23;;;13.60;;
47796;SDS011;33558;50.922;14.068;2023-03-02T10:56:15;23.77;;;12.30;;
47796;SDS011;33558;50.922;14.068;2023-03-02T10:58:45;23.23;;;11.73;;
47796;SDS011;33558;50.922;14.068;2023-03-02T11:01:14;20.83;;;12.93;;
47796;SDS011;33558;50.922;14.068;2023-03-02T11:03:42;21.30;;;12.43;;
47796;SDS011;33558;50.922;14.068;2023-03-02T11:06:21;20.93;;;11.90;;
47796;SDS011;33558;50.922;14.068;2023-03-02T11:08:56;23.43;;;11.37;;
47796;SDS011;33558;50.922;14.068;2023-03-02T11:11:23;22.20;;;11.18;;
47796;SDS011;33558;50.922;14.068;2023-03-02T11:13:50;17.87;;;10.80;;
47796;SDS011;33558;50.922;14.068;2023-03-02T11:16:21;17.43;;;10.53;;
47796;SDS011;33558;50.922;14.068;2023-03-02T11:18:51;16.83;;;10.47;;
47796;SDS011;33558;50.922;14.068;2023-03-02T11:21:22;19.37;;;10.53;;
47796;SDS011;33558;50.922;14.068;2023-03-02T11:23:54;17.20;;;10.63;;
47796;SDS011;33558;50.922;14.068;2023-03-02T11:26:24;20.40;;;10.73;;
47796;SDS011;33558;50.922;14.068;2023-03-02T11:28:53;17.07;;;9.57;;
47796;SDS011;33558;50.922;14.068;2023-03-02T11:31:30;18.73;;;10.70;;
47796;SDS011;33558;50.922;14.068;2023-03-02T11:36:55;18.43;;;10.23;;
47796;SDS011;33558;50.922;14.068;2023-03-02T11:39:24;20.40;;;11.63;;
47796;SDS011;33558;50.922;14.068;2023-03-02T11:41:56;24.03;;;11.47;;
47796;SDS011;33558;50.922;14.068;2023-03-02T11:44:22;17.47;;;10.13;;
47796;SDS011;33558;50.922;14.068;2023-03-02T11:46:52;18.20;;;9.73;;
47796;SDS011;33558;50.922;14.068;2023-03-02T11:49:27;18.83;;;10.40;;
47796;SDS011;33558;50.922;14.068;2023-03-02T11:52:01;23.17;;;11.87;;
47796;SDS011;33558;50.922;14.068;2023-03-02T11:54:30;19.07;;;11.20;;
47796;SDS011;33558;50.922;14.068;2023-03-02T11:57:00;17.47;;;10.77;;
47796;SDS011;33558;50.922;14.068;2023-03-02T11:59:27;15.23;;;9.53;;
47796;SDS011;33558;50.922;14.068;2023-03-02T12:01:54;16.13;;;10.10;;
47796;SDS011;33558;50.922;14.068;2023-03-02T12:04:29;16.00;;;9.67;;
47796;SDS011;33558;50.922;14.068;2023-03-02T12:06:58;15.37;;;9.93;;
47796;SDS011;33558;50.922;14.068;2023-03-02T12:09:31;17.80;;;9.87;;
47796;SDS011;33558;50.922;14.068;2023-03-02T12:12:09;17.87;;;10.60;;
47796;SDS011;33558;50.922;14.068;2023-03-02T12:14:41;18.37;;;10.43;;
47796;SDS011;33558;50.922;14.068;2023-03-02T12:17:19;21.67;;;10.53;;
47796;SDS011;33558;50.922;14.068;2023-03-02T12:19:49;17.57;;;10.60;;
47796;SDS011;33558;50.922;14.068;2023-03-02T12:22:25;20.63;;;11.50;;
47796;SDS011;33558;50.922;14.068;2023-03-02T12:24:58;15.68;;;10.13;;
47796;SDS011;33558;50.922;14.068;2023-03-02T12:27:33;17.38;;;10.27;;
47796;SDS011;33558;50.922;14.068;2023-03-02T12:30:08;65.67;;;13.47;;
47796;SDS011;33558;50.922;14.068;2023-03-02T12:32:38;16.77;;;9.37;;
47796;SDS011;33558;50.922;14.068;2023-03-02T12:35:10;17.97;;;9.70;;
47796;SDS011;33558;50.922;14.068;2023-03-02T12:37:40;17.53;;;9.53;;
47796;SDS011;33558;50.922;14.068;2023-03-02T12:43:10;15.63;;;10.30;;
47796;SDS011;33558;50.922;14.068;2023-03-02T12:45:46;18.10;;;9.27;;
47796;SDS011;33558;50.922;14.068;2023-03-02T12:48:26;16.20;;;9.17;;
47796;SDS011;33558;50.922;14.068;2023-03-02T12:50:57;15.97;;;9.27;;
47796;SDS011;33558;50.922;14.068;2023-03-02T12:53:25;14.97;;;9.03;;
47796;SDS011;33558;50.922;14.068;2023-03-02T12:55:52;16.77;;;9.80;;
47796;SDS011;33558;50.922;14.068;2023-03-02T12:58:20;15.60;;;9.53;;
47796;SDS011;33558;50.922;14.068;2023-03-02T13:00:48;15.43;;;9.33;;
47796;SDS011;33558;50.922;14.068;2023-03-02T13:03:16;12.70;;;8.37;;
47796;SDS011;33558;50.922;14.068;2023-03-02T13:05:42;14.65;;;8.75;;
47796;SDS011;33558;50.922;14.068;2023-03-02T13:08:14;13.18;;;8.30;;
47796;SDS011;33558;50.922;14.068;2023-03-02T13:10:43;15.32;;;9.60;;
47796;SDS011;33558;50.922;14.068;2023-03-02T13:13:14;12.68;;;9.00;;
47796;SDS011;33558;50.922;14.068;2023-03-02T13:15:49;14.68;;;9.45;;
47796;SDS011;33558;50.922;14.068;2023-03-02T13:18:16;13.20;;;7.93;;
47796;SDS011;33558;50.922;14.068;2023-03-02T13:20:43;14.63;;;9.75;;
47796;SDS011;33558;50.922;14.068;2023-03-02T13:23:12;13.23;;;9.25;;
47796;SDS011;33558;50.922;14.068;2023-03-02T13:25:47;14.02;;;9.48;;
47796;SDS011;33558;50.922;14.068;2023-03-02T13:28:22;10.10;;;8.88;;
47796;SDS011;33558;50.922;14.068;2023-03-02T13:30:54;13.82;;;9.95;;
47796;SDS011;33558;50.922;14.068;2023-03-02T13:33:23;12.95;;;9.02;;
47796;SDS011;33558;50.922;14.068;2023-03-02T13:35:50;13.43;;;9.63;;
47796;SDS011;33558;50.922;14.068;2023-03-02T13:38:20;14.50;;;10.38;;
47796;SDS011;33558;50.922;14.068;2023-03-02T13:40:48;11.85;;;9.43;;
47796;SDS011;33558;50.922;14.068;2023-03-02T13:43:28;16.48;;;10.32;;
47796;SDS011;33558;50.922;14.068;2023-03-02T13:46:00;13.63;;;10.05;;
47796;SDS011;33558;50.922;14.068;2023-03-02T13:48:29;13.40;;;9.65;;
47796;SDS011;33558;50.922;14.068;2023-03-02T13:50:56;14.75;;;10.60;;
47796;SDS011;33558;50.922;14.068;2023-03-02T13:53:25;14.55;;;10.40;;
47796;SDS011;33558;50.922;14.068;2023-03-02T13:55:54;15.98;;;9.82;;
47796;SDS011;33558;50.922;14.068;2023-03-02T13:58:21;13.95;;;10.85;;
47796;SDS011;33558;50.922;14.068;2023-03-02T14:00:48;18.17;;;11.73;;
47796;SDS011;33558;50.922;14.068;2023-03-02T14:03:20;17.17;;;11.25;;
47796;SDS011;33558;50.922;14.068;2023-03-02T14:05:49;15.10;;;10.43;;
47796;SDS011;33558;50.922;14.068;2023-03-02T14:08:16;16.15;;;11.88;;
47796;SDS011;33558;50.922;14.068;2023-03-02T14:10:44;17.65;;;11.40;;
47796;SDS011;33558;50.922;14.068;2023-03-02T14:13:12;16.77;;;11.45;;
47796;SDS011;33558;50.922;14.068;2023-03-02T14:15:40;19.33;;;10.40;;
47796;SDS011;33558;50.922;14.068;2023-03-02T14:18:10;14.50;;;9.90;;
47796;SDS011;33558;50.922;14.068;2023-03-02T14:20:48;16.50;;;10.10;;
47796;SDS011;33558;50.922;14.068;2023-03-02T14:23:14;21.27;;;10.10;;
47796;SDS011;33558;50.922;14.068;2023-03-02T14:25:41;14.83;;;9.63;;